Time;durP1;ratioP1;P1;durP2;ratioP2;P2;SDS_P1;SDS_P2;PMS_P1;PMS_P2;Temp;Humidity;BMP_temperature;BMP_pressure;BME280_temperature;BME280_humidity;BME280_pressure;Samples;Min_cycle;Max_cycle;Signal;HPM_P1;HPM_P2
2023/10/31 00:00:09;;;;;;;55.83;2.17;;;;;;;;;;5055526;28;20999;-74
2023/10/31 00:02:36;;;;;;;55.27;2.20;;;;;;;;;;5055662;28;20496;-73
2023/10/31 00:05:03;;;;;;;55.20;2.20;;;;;;;;;;5056644;28;20444;-74
2023/10/31 00:07:32;;;;;;;55.67;2.13;;;;;;;;;;5056926;28;20453;-73
2023/10/31 00:09:59;;;;;;;55.67;2.20;;;;;;;;;;5058128;28;20486;-73
2023/10/31 00:12:26;;;;;;;55.03;2.30;;;;;;;;;;5061501;28;20440;-70
2023/10/31 00:14:53;;;;;;;56.20;2.40;;;;;;;;;;5061527;28;20448;-73
2023/10/31 00:17:20;;;;;;;55.47;2.20;;;;;;;;;;5061105;28;20446;-72
2023/10/31 00:19:47;;;;;;;55.87;2.17;;;;;;;;;;5061478;28;20464;-74
2023/10/31 00:22:14;;;;;;;55.83;2.10;;;;;;;;;;5060813;28;20500;-73
2023/10/31 00:24:43;;;;;;;56.10;2.20;;;;;;;;;;5060011;28;20458;-74
2023/10/31 00:27:10;;;;;;;55.87;2.20;;;;;;;;;;5059374;28;20463;-74
2023/10/31 00:29:37;;;;;;;55.80;2.10;;;;;;;;;;5059269;28;20535;-74
2023/10/31 00:32:04;;;;;;;56.20;2.30;;;;;;;;;;5060125;28;20441;-74
2023/10/31 00:34:31;;;;;;;55.40;2.17;;;;;;;;;;5057765;28;20452;-75
2023/10/31 00:36:58;;;;;;;55.77;2.27;;;;;;;;;;5059678;28;20445;-74
2023/10/31 00:39:25;;;;;;;56.00;2.00;;;;;;;;;;5059768;28;20468;-74
2023/10/31 00:41:54;;;;;;;55.67;2.20;;;;;;;;;;5058252;28;20488;-73
2023/10/31 00:44:21;;;;;;;56.20;2.20;;;;;;;;;;5059348;28;20452;-73
2023/10/31 00:46:48;;;;;;;55.90;2.13;;;;;;;;;;5059411;28;20448;-74
2023/10/31 00:49:15;;;;;;;55.47;2.27;;;;;;;;;;5059398;28;20448;-74
2023/10/31 00:51:42;;;;;;;55.77;2.30;;;;;;;;;;5058973;28;20453;-73
2023/10/31 00:54:09;;;;;;;55.50;2.37;;;;;;;;;;5059598;28;20449;-73
2023/10/31 00:56:36;;;;;;;56.00;2.17;;;;;;;;;;5059361;28;20457;-74
2023/10/31 00:59:05;;;;;;;55.90;2.17;;;;;;;;;;5059143;28;20517;-73
2023/10/31 01:01:32;;;;;;;56.10;2.30;;;;;;;;;;5058997;28;20498;-73
2023/10/31 01:03:59;;;;;;;55.77;2.20;;;;;;;;;;5058812;28;20454;-73
2023/10/31 01:06:26;;;;;;;55.77;2.03;;;;;;;;;;5058835;28;20450;-73
2023/10/31 01:08:53;;;;;;;55.97;2.30;;;;;;;;;;5058245;28;20457;-72
2023/10/31 01:11:20;;;;;;;55.90;2.10;;;;;;;;;;5058598;28;20466;-74
2023/10/31 01:13:47;;;;;;;56.30;2.70;;;;;;;;;;5059088;28;20458;-73
2023/10/31 01:16:17;;;;;;;55.87;2.17;;;;;;;;;;5058891;28;20449;-73
2023/10/31 01:18:44;;;;;;;55.37;2.10;;;;;;;;;;5058695;28;20448;-73
2023/10/31 01:21:11;;;;;;;55.83;2.20;;;;;;;;;;5057709;28;20588;-74
2023/10/31 01:23:38;;;;;;;55.77;2.17;;;;;;;;;;5058108;28;20453;-73
2023/10/31 01:26:05;;;;;;;55.67;2.30;;;;;;;;;;5055045;28;20445;-73
2023/10/31 01:28:32;;;;;;;56.30;2.30;;;;;;;;;;5056048;28;20453;-73
2023/10/31 01:30:59;;;;;;;55.67;2.07;;;;;;;;;;5055387;28;20466;-73
2023/10/31 01:33:27;;;;;;;55.63;2.10;;;;;;;;;;5054763;28;20978;-73
2023/10/31 01:35:54;;;;;;;55.60;2.00;;;;;;;;;;5054355;28;20449;-73
2023/10/31 01:38:21;;;;;;;55.97;2.10;;;;;;;;;;5054645;28;20444;-72
2023/10/31 01:40:50;;;;;;;55.33;2.07;;;;;;;;;;5054187;28;20478;-73
2023/10/31 01:43:30;;;;;;;55.37;2.13;;;;;;;;;;5055193;28;20449;-73
2023/10/31 01:45:57;;;;;;;55.83;2.90;;;;;;;;;;5055078;28;20454;-74
2023/10/31 01:48:25;;;;;;;56.20;2.37;;;;;;;;;;5054862;28;20454;-73
2023/10/31 01:50:53;;;;;;;55.73;2.00;;;;;;;;;;5055162;28;20466;-72
2023/10/31 01:53:20;;;;;;;56.00;2.17;;;;;;;;;;5054580;28;20524;-73
2023/10/31 01:55:48;;;;;;;55.63;2.30;;;;;;;;;;5054741;28;20461;-73
2023/10/31 01:58:15;;;;;;;55.73;2.17;;;;;;;;;;5055272;28;20449;-73
2023/10/31 02:00:43;;;;;;;55.90;2.13;;;;;;;;;;5054526;28;21019;-73
2023/10/31 02:03:10;;;;;;;55.17;2.00;;;;;;;;;;5054684;28;20496;-71
2023/10/31 02:05:37;;;;;;;55.30;2.00;;;;;;;;;;5055454;28;20437;-73
2023/10/31 02:08:08;;;;;;;55.70;2.10;;;;;;;;;;5055235;28;20491;-72
2023/10/31 02:10:35;;;;;;;55.33;2.20;;;;;;;;;;5054825;28;20465;-73
2023/10/31 02:13:12;;;;;;;55.83;2.10;;;;;;;;;;5055345;28;20444;-72
2023/10/31 02:15:39;;;;;;;55.60;2.10;;;;;;;;;;5054674;28;20479;-73
2023/10/31 02:18:07;;;;;;;55.57;2.10;;;;;;;;;;5054527;28;20535;-73
2023/10/31 02:20:34;;;;;;;56.30;2.40;;;;;;;;;;5055032;28;20480;-72
2023/10/31 02:23:02;;;;;;;55.63;2.07;;;;;;;;;;5054607;28;20486;-73
2023/10/31 02:25:29;;;;;;;56.30;2.23;;;;;;;;;;5055326;28;20456;-73
2023/10/31 02:27:56;;;;;;;56.10;2.30;;;;;;;;;;5055406;28;20450;-73
2023/10/31 02:30:23;;;;;;;55.67;2.07;;;;;;;;;;5054888;28;20469;-69
2023/10/31 02:32:51;;;;;;;55.97;2.23;;;;;;;;;;5055564;28;20450;-72
2023/10/31 02:35:18;;;;;;;55.57;2.17;;;;;;;;;;5054666;28;20564;-73
2023/10/31 02:37:45;;;;;;;55.67;2.20;;;;;;;;;;5055901;28;20448;-72
2023/10/31 02:40:14;;;;;;;55.53;2.10;;;;;;;;;;5055963;28;20472;-72
2023/10/31 02:42:42;;;;;;;55.47;2.03;;;;;;;;;;5056169;28;20484;-73
2023/10/31 02:45:09;;;;;;;55.57;2.00;;;;;;;;;;5056395;28;20463;-72
2023/10/31 02:47:36;;;;;;;56.40;2.50;;;;;;;;;;5055694;28;20453;-73
2023/10/31 02:50:04;;;;;;;55.63;2.10;;;;;;;;;;5055208;28;20468;-72
2023/10/31 02:52:31;;;;;;;55.57;2.17;;;;;;;;;;5056885;28;20821;-73
2023/10/31 02:54:58;;;;;;;55.90;1.90;;;;;;;;;;5055655;28;20455;-72
2023/10/31 02:57:26;;;;;;;56.30;2.30;;;;;;;;;;5055955;28;20805;-71
2023/10/31 02:59:53;;;;;;;56.13;2.30;;;;;;;;;;5054824;28;20466;-71
2023/10/31 03:02:20;;;;;;;55.57;2.20;;;;;;;;;;5055916;28;20488;-71
2023/10/31 03:04:47;;;;;;;55.87;2.20;;;;;;;;;;5055787;28;20445;-71
2023/10/31 03:07:14;;;;;;;56.10;2.23;;;;;;;;;;5055323;28;20450;-72
2023/10/31 03:12:46;;;;;;;56.30;2.50;;;;;;;;;;5055058;28;20870;-71
2023/10/31 03:15:13;;;;;;;55.43;2.10;;;;;;;;;;5055809;28;20444;-71
2023/10/31 03:17:40;;;;;;;56.30;2.13;;;;;;;;;;5055781;28;20452;-71
2023/10/31 03:20:08;;;;;;;56.00;1.90;;;;;;;;;;5055601;28;20470;-71
2023/10/31 03:22:35;;;;;;;55.57;2.10;;;;;;;;;;5055261;28;20913;-71
2023/10/31 03:25:03;;;;;;;55.70;2.17;;;;;;;;;;5055344;28;20450;-71
2023/10/31 03:27:30;;;;;;;55.90;2.27;;;;;;;;;;5055077;28;20481;-71
2023/10/31 03:29:58;;;;;;;55.37;2.20;;;;;;;;;;5055142;28;20498;-72
2023/10/31 03:32:25;;;;;;;56.03;1.93;;;;;;;;;;5055727;28;20451;-71
2023/10/31 03:34:52;;;;;;;55.67;2.23;;;;;;;;;;5055185;28;20460;-71
2023/10/31 03:37:19;;;;;;;56.00;2.23;;;;;;;;;;5055853;28;20448;-71
2023/10/31 03:39:46;;;;;;;56.00;2.17;;;;;;;;;;5055128;28;20470;-71
2023/10/31 03:42:13;;;;;;;55.87;2.03;;;;;;;;;;5055590;28;21020;-72
2023/10/31 03:44:41;;;;;;;55.20;2.03;;;;;;;;;;5055915;28;20461;-72
2023/10/31 03:47:09;;;;;;;55.40;2.30;;;;;;;;;;5060123;28;20453;-72
2023/10/31 03:49:39;;;;;;;55.93;2.20;;;;;;;;;;5059612;28;20473;-70
2023/10/31 03:52:06;;;;;;;55.97;2.30;;;;;;;;;;5059564;28;20452;-72
2023/10/31 03:54:34;;;;;;;54.93;2.07;;;;;;;;;;5058789;28;20543;-72
2023/10/31 03:57:01;;;;;;;55.77;2.20;;;;;;;;;;5058889;28;20445;-71
2023/10/31 03:59:28;;;;;;;56.20;2.23;;;;;;;;;;5058920;28;20478;-72
2023/10/31 04:01:55;;;;;;;55.67;2.30;;;;;;;;;;5058591;28;20860;-71
2023/10/31 04:04:23;;;;;;;55.67;2.27;;;;;;;;;;5058495;28;20447;-71
2023/10/31 04:06:50;;;;;;;55.57;2.10;;;;;;;;;;5058602;28;20455;-70
2023/10/31 04:09:18;;;;;;;55.57;2.57;;;;;;;;;;5058640;28;20531;-71
2023/10/31 04:11:45;;;;;;;55.60;2.20;;;;;;;;;;5058162;28;20444;-71
2023/10/31 04:14:12;;;;;;;55.87;2.13;;;;;;;;;;5058661;28;20452;-71
2023/10/31 04:16:45;;;;;;;55.77;2.17;;;;;;;;;;5058631;28;20454;-71
2023/10/31 04:19:12;;;;;;;55.97;2.37;;;;;;;;;;5058895;28;20456;-72
2023/10/31 04:21:40;;;;;;;55.67;2.10;;;;;;;;;;5058232;28;20444;-71
2023/10/31 04:24:08;;;;;;;55.37;2.30;;;;;;;;;;5058323;28;20454;-71
2023/10/31 04:26:35;;;;;;;56.17;2.23;;;;;;;;;;5057938;28;20448;-70
2023/10/31 04:29:02;;;;;;;56.17;2.40;;;;;;;;;;5058074;28;20450;-72
2023/10/31 04:31:29;;;;;;;56.07;2.23;;;;;;;;;;5058423;28;20470;-71
2023/10/31 04:33:56;;;;;;;55.77;2.20;;;;;;;;;;5057787;28;20446;-72
2023/10/31 04:36:24;;;;;;;55.50;2.30;;;;;;;;;;5057091;28;20452;-71
2023/10/31 04:38:52;;;;;;;55.57;2.10;;;;;;;;;;5057642;28;20448;-72
2023/10/31 04:41:19;;;;;;;55.83;2.10;;;;;;;;;;5056627;28;20496;-70
2023/10/31 04:43:46;;;;;;;55.90;2.10;;;;;;;;;;5057390;28;20500;-71
2023/10/31 04:46:14;;;;;;;55.37;2.10;;;;;;;;;;5057522;28;20450;-71
2023/10/31 04:48:41;;;;;;;55.57;2.07;;;;;;;;;;5057852;28;20994;-72
2023/10/31 04:51:08;;;;;;;56.00;2.27;;;;;;;;;;5057431;28;20470;-71
2023/10/31 04:53:35;;;;;;;55.73;2.17;;;;;;;;;;5057174;28;20449;-71
2023/10/31 04:56:03;;;;;;;56.07;2.50;;;;;;;;;;5055581;28;20487;-71
2023/10/31 04:58:31;;;;;;;55.90;2.10;;;;;;;;;;5056176;28;20444;-72
2023/10/31 05:00:58;;;;;;;56.27;2.30;;;;;;;;;;5056307;28;20494;-72
2023/10/31 05:03:25;;;;;;;55.40;2.23;;;;;;;;;;5056339;28;20484;-73
2023/10/31 05:05:52;;;;;;;56.40;2.50;;;;;;;;;;5056438;28;20452;-72
2023/10/31 05:08:19;;;;;;;56.10;2.20;;;;;;;;;;5055908;28;20445;-72
2023/10/31 05:10:47;;;;;;;55.87;2.20;;;;;;;;;;5056138;28;20480;-72
2023/10/31 05:13:15;;;;;;;55.87;2.50;;;;;;;;;;5055708;28;20993;-72
2023/10/31 05:15:42;;;;;;;55.97;2.00;;;;;;;;;;5054730;28;20444;-72
2023/10/31 05:18:10;;;;;;;55.20;2.20;;;;;;;;;;5054908;28;20784;-72
2023/10/31 05:20:37;;;;;;;55.97;2.30;;;;;;;;;;5055041;28;20464;-72
2023/10/31 05:23:04;;;;;;;56.03;2.10;;;;;;;;;;5054726;28;20501;-72
2023/10/31 05:25:31;;;;;;;55.83;2.37;;;;;;;;;;5054605;28;20445;-72
2023/10/31 05:27:59;;;;;;;56.50;2.40;;;;;;;;;;5054766;28;20822;-71
2023/10/31 05:30:27;;;;;;;56.20;2.50;;;;;;;;;;5054688;28;20477;-72
2023/10/31 05:32:54;;;;;;;56.50;3.13;;;;;;;;;;5055017;28;20442;-71
2023/10/31 05:35:22;;;;;;;55.87;2.37;;;;;;;;;;5054460;28;20459;-72
2023/10/31 05:37:49;;;;;;;55.90;2.30;;;;;;;;;;5055067;28;20464;-72
2023/10/31 05:40:17;;;;;;;56.30;2.60;;;;;;;;;;5054803;28;20488;-72
2023/10/31 05:42:44;;;;;;;55.77;2.30;;;;;;;;;;5054502;28;20485;-72
2023/10/31 05:45:11;;;;;;;56.40;2.20;;;;;;;;;;5054453;28;20450;-72
2023/10/31 05:47:40;;;;;;;56.17;2.30;;;;;;;;;;5054838;28;20453;-70
2023/10/31 05:50:07;;;;;;;55.43;2.33;;;;;;;;;;5053716;28;21003;-72
2023/10/31 05:52:35;;;;;;;56.20;2.30;;;;;;;;;;5054111;28;20448;-71
2023/10/31 05:55:02;;;;;;;56.03;2.47;;;;;;;;;;5053816;28;20886;-72
2023/10/31 05:57:29;;;;;;;56.10;2.30;;;;;;;;;;5053517;28;20450;-71
2023/10/31 05:59:56;;;;;;;56.17;2.80;;;;;;;;;;5054124;28;20526;-72
2023/10/31 06:02:23;;;;;;;55.93;2.33;;;;;;;;;;5053114;28;20455;-71
2023/10/31 06:04:51;;;;;;;56.50;3.10;;;;;;;;;;5052960;28;20449;-72
2023/10/31 06:07:18;;;;;;;56.10;2.37;;;;;;;;;;5054380;28;20452;-72
2023/10/31 06:09:46;;;;;;;56.27;2.40;;;;;;;;;;5053703;28;20470;-70
2023/10/31 06:12:13;;;;;;;55.93;2.93;;;;;;;;;;5053989;28;20445;-70
2023/10/31 06:14:40;;;;;;;56.50;2.63;;;;;;;;;;5053569;28;20544;-72
2023/10/31 06:17:07;;;;;;;56.20;2.10;;;;;;;;;;5053677;28;20448;-72
2023/10/31 06:19:35;;;;;;;56.27;2.20;;;;;;;;;;5053651;28;20474;-72
2023/10/31 06:22:04;;;;;;;56.10;2.40;;;;;;;;;;5053617;28;20455;-70
2023/10/31 06:24:31;;;;;;;56.60;2.73;;;;;;;;;;5053814;28;20832;-72
2023/10/31 06:26:58;;;;;;;56.17;2.50;;;;;;;;;;5053258;28;21245;-72
2023/10/31 06:29:25;;;;;;;55.83;2.50;;;;;;;;;;5053546;28;20964;-71
2023/10/31 06:31:52;;;;;;;55.93;2.33;;;;;;;;;;5053572;28;20539;-73
2023/10/31 06:34:20;;;;;;;55.30;2.30;;;;;;;;;;5053505;28;20454;-70
2023/10/31 06:36:47;;;;;;;56.20;2.30;;;;;;;;;;5053842;28;20876;-72
2023/10/31 06:39:15;;;;;;;56.10;2.30;;;;;;;;;;5053428;28;20445;-71
2023/10/31 06:41:42;;;;;;;56.00;2.30;;;;;;;;;;5052773;28;20461;-71
2023/10/31 06:44:09;;;;;;;56.20;2.20;;;;;;;;;;5053089;28;20489;-70
2023/10/31 06:46:36;;;;;;;55.87;2.30;;;;;;;;;;5053231;28;20934;-71
2023/10/31 06:49:04;;;;;;;56.17;2.50;;;;;;;;;;5053181;28;20855;-71
2023/10/31 06:51:31;;;;;;;55.97;2.10;;;;;;;;;;5052858;28;20509;-72
2023/10/31 06:53:58;;;;;;;55.67;2.13;;;;;;;;;;5053812;28;20460;-72
2023/10/31 06:56:28;;;;;;;55.67;2.27;;;;;;;;;;5052924;28;20457;-72
2023/10/31 06:58:55;;;;;;;56.10;2.07;;;;;;;;;;5053462;28;20480;-72
2023/10/31 07:01:22;;;;;;;55.83;2.30;;;;;;;;;;5053244;28;20477;-71
2023/10/31 07:03:49;;;;;;;55.30;2.13;;;;;;;;;;5053499;28;20510;-73
2023/10/31 07:06:17;;;;;;;55.47;2.10;;;;;;;;;;5053558;28;20455;-71
2023/10/31 07:08:44;;;;;;;55.47;2.10;;;;;;;;;;5052567;28;20952;-70
2023/10/31 07:11:11;;;;;;;56.10;2.10;;;;;;;;;;5050849;28;21011;-69
2023/10/31 07:13:39;;;;;;;55.73;1.97;;;;;;;;;;5051281;28;20818;-69
2023/10/31 07:16:07;;;;;;;56.07;2.00;;;;;;;;;;5050781;28;20461;-70
2023/10/31 07:18:34;;;;;;;55.70;2.00;;;;;;;;;;5051321;28;20455;-69
2023/10/31 07:21:01;;;;;;;55.77;1.93;;;;;;;;;;5050062;28;20475;-69
2023/10/31 07:23:27;;;;;;;55.37;1.90;;;;;;;;;;5051291;28;20484;-71
2023/10/31 07:25:54;;;;;;;55.77;2.10;;;;;;;;;;5050728;28;20460;-71
2023/10/31 07:28:21;;;;;;;56.10;2.40;;;;;;;;;;5051017;28;20448;-68
2023/10/31 07:30:50;;;;;;;55.43;1.90;;;;;;;;;;5050715;28;20474;-71
2023/10/31 07:33:17;;;;;;;54.97;1.90;;;;;;;;;;5050869;28;20438;-70
2023/10/31 07:35:44;;;;;;;56.00;2.20;;;;;;;;;;5050629;28;20517;-70
2023/10/31 07:38:11;;;;;;;55.77;1.70;;;;;;;;;;5050665;28;20449;-70
2023/10/31 07:40:38;;;;;;;55.07;1.93;;;;;;;;;;5050388;28;20472;-71
2023/10/31 07:43:05;;;;;;;55.67;2.00;;;;;;;;;;5050681;28;20484;-70
2023/10/31 07:45:33;;;;;;;55.70;1.90;;;;;;;;;;5050501;28;20453;-71
2023/10/31 07:48:01;;;;;;;55.53;2.10;;;;;;;;;;5050254;28;20454;-70
2023/10/31 07:50:28;;;;;;;55.00;1.90;;;;;;;;;;5050506;28;20464;-70
2023/10/31 07:52:55;;;;;;;55.90;2.20;;;;;;;;;;5050380;28;20450;-71
2023/10/31 07:55:22;;;;;;;55.27;1.93;;;;;;;;;;5050502;28;20881;-69
2023/10/31 07:57:49;;;;;;;55.67;1.90;;;;;;;;;;5050793;28;20441;-70
2023/10/31 08:00:17;;;;;;;55.53;1.77;;;;;;;;;;5050405;28;20474;-71
2023/10/31 08:02:44;;;;;;;55.27;1.80;;;;;;;;;;5050414;28;20447;-71
2023/10/31 08:05:12;;;;;;;55.80;1.83;;;;;;;;;;5050633;28;20548;-71
2023/10/31 08:07:40;;;;;;;55.50;1.93;;;;;;;;;;5050300;28;20446;-70
2023/10/31 08:10:07;;;;;;;54.77;2.00;;;;;;;;;;5050104;28;20468;-70
2023/10/31 08:12:35;;;;;;;55.37;1.90;;;;;;;;;;5050374;28;20537;-71
2023/10/31 08:15:02;;;;;;;55.70;2.30;;;;;;;;;;5050033;28;20444;-70
2023/10/31 08:17:29;;;;;;;55.70;1.77;;;;;;;;;;5050476;28;20460;-70
2023/10/31 08:19:56;;;;;;;55.37;1.80;;;;;;;;;;5050225;28;21006;-72
2023/10/31 08:22:24;;;;;;;55.43;2.10;;;;;;;;;;5050089;28;20446;-70
2023/10/31 08:24:52;;;;;;;54.97;1.87;;;;;;;;;;5050030;28;20486;-71
2023/10/31 08:27:19;;;;;;;55.83;1.80;;;;;;;;;;5050150;28;20444;-70
2023/10/31 08:29:47;;;;;;;55.90;2.00;;;;;;;;;;5050218;28;20464;-71
2023/10/31 08:32:14;;;;;;;55.70;2.10;;;;;;;;;;5052458;28;20456;-71
2023/10/31 08:34:41;;;;;;;55.33;2.00;;;;;;;;;;5053571;28;20494;-71
2023/10/31 08:37:08;;;;;;;55.70;1.73;;;;;;;;;;5053556;28;20461;-72
2023/10/31 08:39:36;;;;;;;55.70;1.90;;;;;;;;;;5053878;28;20491;-71
2023/10/31 08:42:04;;;;;;;55.60;1.97;;;;;;;;;;5053356;28;20531;-70
2023/10/31 08:44:33;;;;;;;55.63;1.90;;;;;;;;;;5053569;28;20496;-71
2023/10/31 08:47:00;;;;;;;55.70;1.90;;;;;;;;;;5053375;28;20481;-71
2023/10/31 08:49:27;;;;;;;55.80;2.00;;;;;;;;;;5053352;28;20464;-70
2023/10/31 08:51:54;;;;;;;55.70;2.10;;;;;;;;;;5053342;28;20454;-71
2023/10/31 08:54:21;;;;;;;56.00;2.30;;;;;;;;;;5053645;28;20442;-70
2023/10/31 08:56:50;;;;;;;55.17;1.83;;;;;;;;;;5053243;28;20446;-71
2023/10/31 08:59:17;;;;;;;55.73;1.90;;;;;;;;;;5053064;28;20445;-70
2023/10/31 09:01:44;;;;;;;55.70;2.00;;;;;;;;;;5052948;28;20452;-71
2023/10/31 09:04:11;;;;;;;55.50;1.80;;;;;;;;;;5052979;28;20498;-72
2023/10/31 09:06:38;;;;;;;55.70;1.80;;;;;;;;;;5053344;28;20502;-71
2023/10/31 09:09:05;;;;;;;55.63;1.80;;;;;;;;;;5053098;28;20454;-71
2023/10/31 09:11:32;;;;;;;55.73;1.93;;;;;;;;;;5052998;28;20836;-72
2023/10/31 09:14:01;;;;;;;55.60;1.90;;;;;;;;;;5052974;28;20450;-72
2023/10/31 09:16:28;;;;;;;56.73;2.60;;;;;;;;;;5052800;28;20954;-71
2023/10/31 09:18:55;;;;;;;55.60;2.00;;;;;;;;;;5053088;28;20454;-71
2023/10/31 09:21:22;;;;;;;55.47;1.87;;;;;;;;;;5052630;28;20990;-71
2023/10/31 09:23:49;;;;;;;55.80;1.87;;;;;;;;;;5052814;28;20484;-71
2023/10/31 09:26:17;;;;;;;55.47;1.67;;;;;;;;;;5052497;28;20821;-71
2023/10/31 09:28:49;;;;;;;55.80;1.80;;;;;;;;;;5052813;28;20841;-71
2023/10/31 09:31:18;;;;;;;55.97;1.77;;;;;;;;;;5052656;28;20589;-71
2023/10/31 09:33:45;;;;;;;55.97;2.00;;;;;;;;;;5052587;28;20456;-72
2023/10/31 09:36:12;;;;;;;55.43;1.80;;;;;;;;;;5052386;28;20886;-72
2023/10/31 09:38:39;;;;;;;55.53;1.83;;;;;;;;;;5052502;28;20482;-72
2023/10/31 09:41:07;;;;;;;55.90;1.80;;;;;;;;;;5052174;28;20476;-72
2023/10/31 09:43:34;;;;;;;55.77;1.67;;;;;;;;;;5051679;28;20452;-71
2023/10/31 09:46:01;;;;;;;55.80;1.80;;;;;;;;;;5052324;28;20454;-70
2023/10/31 09:48:30;;;;;;;56.47;2.20;;;;;;;;;;5052430;28;20446;-72
2023/10/31 09:50:57;;;;;;;55.73;1.90;;;;;;;;;;5052097;28;21024;-69
2023/10/31 09:53:25;;;;;;;55.73;1.93;;;;;;;;;;5052035;28;20448;-70
2023/10/31 09:55:53;;;;;;;56.07;2.00;;;;;;;;;;5051920;28;20798;-69
2023/10/31 09:58:20;;;;;;;55.90;1.97;;;;;;;;;;5052146;28;20479;-70
2023/10/31 10:00:47;;;;;;;55.73;1.83;;;;;;;;;;5052032;28;20836;-70
2023/10/31 10:03:15;;;;;;;55.97;2.00;;;;;;;;;;5052047;28;20461;-70
2023/10/31 10:05:46;;;;;;;55.60;1.47;;;;;;;;;;5051810;28;20498;-71
2023/10/31 10:08:13;;;;;;;55.80;2.20;;;;;;;;;;5051856;28;20449;-70
2023/10/31 10:10:40;;;;;;;55.80;1.90;;;;;;;;;;5051293;28;20471;-70
2023/10/31 10:13:08;;;;;;;55.67;1.60;;;;;;;;;;5051958;28;20647;-72
2023/10/31 10:15:44;;;;;;;55.77;1.90;;;;;;;;;;5052022;28;20452;-70
2023/10/31 10:18:12;;;;;;;55.47;1.80;;;;;;;;;;5051997;28;20448;-70
2023/10/31 10:20:55;;;;;;;55.90;1.70;;;;;;;;;;5051863;28;20470;-71
2023/10/31 10:23:23;;;;;;;55.67;2.10;;;;;;;;;;5052128;28;20470;-71
2023/10/31 10:25:52;;;;;;;55.80;2.20;;;;;;;;;;5051679;28;20491;-71
2023/10/31 10:28:19;;;;;;;55.97;1.90;;;;;;;;;;5051648;28;20939;-71
2023/10/31 10:30:47;;;;;;;55.80;1.83;;;;;;;;;;5051587;28;20472;-71
2023/10/31 10:33:14;;;;;;;55.90;1.80;;;;;;;;;;5051418;28;20444;-71
2023/10/31 10:35:41;;;;;;;55.90;1.90;;;;;;;;;;5051289;28;20451;-71
2023/10/31 10:38:13;;;;;;;55.47;1.80;;;;;;;;;;5051590;28;20444;-70
2023/10/31 10:40:43;;;;;;;55.27;1.90;;;;;;;;;;5051421;28;20473;-70
2023/10/31 10:43:13;;;;;;;55.60;1.90;;;;;;;;;;5051276;28;20445;-71
2023/10/31 10:45:43;;;;;;;55.90;1.87;;;;;;;;;;5051094;28;20517;-72
2023/10/31 10:48:12;;;;;;;56.20;2.60;;;;;;;;;;5051434;28;20445;-73
2023/10/31 10:50:43;;;;;;;55.80;1.80;;;;;;;;;;5051169;28;20520;-71
2023/10/31 10:53:16;;;;;;;55.57;1.80;;;;;;;;;;5051188;28;20992;-73
2023/10/31 10:55:46;;;;;;;56.10;1.83;;;;;;;;;;5050077;28;20940;-72
2023/10/31 10:58:15;;;;;;;55.60;1.90;;;;;;;;;;5051048;28;20455;-71
2023/10/31 11:00:42;;;;;;;55.87;1.90;;;;;;;;;;5050800;28;20478;-71
2023/10/31 11:03:10;;;;;;;55.73;1.77;;;;;;;;;;5051221;28;20790;-71
2023/10/31 11:05:38;;;;;;;56.80;2.10;;;;;;;;;;5050823;28;20480;-72
2023/10/31 11:08:06;;;;;;;55.77;1.90;;;;;;;;;;5050994;28;20452;-72
2023/10/31 11:10:33;;;;;;;55.53;1.83;;;;;;;;;;5050724;28;20474;-72
2023/10/31 11:13:01;;;;;;;55.60;2.00;;;;;;;;;;5050924;28;20456;-71
2023/10/31 11:15:29;;;;;;;63.00;2.20;;;;;;;;;;5050950;28;20443;-71
2023/10/31 11:17:57;;;;;;;55.47;2.00;;;;;;;;;;5050873;28;20454;-71
2023/10/31 11:20:24;;;;;;;55.60;2.03;;;;;;;;;;5050814;28;20794;-72
2023/10/31 11:22:57;;;;;;;55.37;1.80;;;;;;;;;;5050742;28;20837;-71
2023/10/31 11:25:24;;;;;;;55.80;2.30;;;;;;;;;;5050551;28;20558;-72
2023/10/31 11:27:52;;;;;;;55.70;1.90;;;;;;;;;;5050722;28;20459;-72
2023/10/31 11:30:23;;;;;;;55.77;2.20;;;;;;;;;;5050651;28;20481;-71
2023/10/31 11:32:53;;;;;;;55.70;1.73;;;;;;;;;;5050699;28;20446;-71
2023/10/31 11:35:20;;;;;;;55.27;1.70;;;;;;;;;;5050626;28;20494;-71
2023/10/31 11:37:49;;;;;;;56.20;1.90;;;;;;;;;;5050658;28;20469;-70
2023/10/31 11:40:18;;;;;;;55.67;1.97;;;;;;;;;;5050451;28;20516;-71
2023/10/31 11:42:45;;;;;;;56.93;1.90;;;;;;;;;;5050642;28;20484;-71
2023/10/31 11:45:12;;;;;;;55.80;1.80;;;;;;;;;;5050396;28;20491;-71
2023/10/31 11:47:50;;;;;;;55.50;1.80;;;;;;;;;;5050681;28;20452;-71
2023/10/31 11:50:18;;;;;;;55.77;1.83;;;;;;;;;;5050488;28;20468;-71
2023/10/31 11:52:45;;;;;;;55.67;1.90;;;;;;;;;;5050697;28;20446;-71
2023/10/31 11:55:13;;;;;;;55.47;1.70;;;;;;;;;;5050427;28;20440;-71
2023/10/31 11:57:40;;;;;;;55.17;1.90;;;;;;;;;;5050607;28;20451;-71
2023/10/31 12:00:10;;;;;;;56.30;2.20;;;;;;;;;;5050193;28;20975;-71
2023/10/31 12:02:37;;;;;;;55.97;2.03;;;;;;;;;;5050365;28;20477;-71
2023/10/31 12:05:12;;;;;;;55.80;1.80;;;;;;;;;;5050162;28;20839;-70
2023/10/31 12:07:45;;;;;;;55.97;2.00;;;;;;;;;;5054087;28;20827;-71
2023/10/31 12:10:12;;;;;;;55.90;1.90;;;;;;;;;;5054097;28;20471;-71
2023/10/31 12:12:40;;;;;;;55.77;1.90;;;;;;;;;;5054559;28;20448;-71
2023/10/31 12:15:07;;;;;;;55.77;2.00;;;;;;;;;;5054203;28;20440;-71
2023/10/31 12:17:34;;;;;;;55.67;1.80;;;;;;;;;;5046266;28;20858;-71
2023/10/31 12:20:04;;;;;;;55.83;1.90;;;;;;;;;;5054150;28;20470;-71
2023/10/31 12:22:33;;;;;;;55.77;1.87;;;;;;;;;;5054039;28;20445;-71
2023/10/31 12:25:03;;;;;;;55.13;1.70;;;;;;;;;;5053773;28;20480;-71
2023/10/31 12:27:44;;;;;;;55.60;1.80;;;;;;;;;;5053788;28;20954;-72
2023/10/31 12:30:11;;;;;;;55.47;1.70;;;;;;;;;;5054278;28;20523;-71
2023/10/31 12:32:38;;;;;;;55.67;1.80;;;;;;;;;;5054165;28;20452;-72
2023/10/31 12:35:06;;;;;;;55.47;1.80;;;;;;;;;;5053876;28;20445;-71
2023/10/31 12:37:34;;;;;;;55.90;2.07;;;;;;;;;;5053952;28;20442;-72
2023/10/31 12:40:04;;;;;;;55.63;1.80;;;;;;;;;;5053814;28;20468;-72
2023/10/31 12:42:31;;;;;;;55.47;1.93;;;;;;;;;;5053479;28;20475;-72
2023/10/31 12:44:59;;;;;;;55.80;1.73;;;;;;;;;;5053630;28;21029;-72
2023/10/31 12:47:26;;;;;;;55.70;2.00;;;;;;;;;;5053531;28;20457;-72
2023/10/31 12:50:07;;;;;;;55.70;2.07;;;;;;;;;;5053440;28;20478;-72
2023/10/31 12:52:48;;;;;;;55.80;1.80;;;;;;;;;;5053609;28;20912;-71
2023/10/31 12:55:15;;;;;;;56.00;2.13;;;;;;;;;;5053210;28;20954;-72
2023/10/31 12:57:43;;;;;;;55.60;1.87;;;;;;;;;;5053537;28;20451;-72
2023/10/31 13:00:12;;;;;;;55.80;1.90;;;;;;;;;;5053367;28;20579;-72
2023/10/31 13:02:39;;;;;;;55.83;1.90;;;;;;;;;;5053348;28;20504;-74
2023/10/31 13:05:10;;;;;;;55.53;1.90;;;;;;;;;;5053071;28;20482;-72
2023/10/31 13:07:37;;;;;;;55.67;1.90;;;;;;;;;;5053116;28;20945;-73
2023/10/31 13:10:06;;;;;;;56.57;2.67;;;;;;;;;;5053239;28;20466;-71
2023/10/31 13:12:33;;;;;;;55.63;1.77;;;;;;;;;;5053200;28;20436;-72
2023/10/31 13:15:00;;;;;;;55.77;2.00;;;;;;;;;;5052864;28;21006;-73
2023/10/31 13:17:28;;;;;;;55.43;1.83;;;;;;;;;;5052298;28;20870;-71
2023/10/31 13:19:55;;;;;;;56.10;2.40;;;;;;;;;;5052961;28;20471;-73
2023/10/31 13:22:22;;;;;;;55.87;2.10;;;;;;;;;;5052906;28;20448;-72
2023/10/31 13:24:49;;;;;;;57.33;2.43;;;;;;;;;;5052963;28;20489;-74
2023/10/31 13:27:18;;;;;;;55.90;1.70;;;;;;;;;;5053224;28;20450;-72
2023/10/31 13:29:45;;;;;;;56.60;2.57;;;;;;;;;;5052924;28;20468;-72
2023/10/31 13:32:12;;;;;;;55.17;1.83;;;;;;;;;;5052809;28;20444;-72
2023/10/31 13:34:40;;;;;;;55.47;1.80;;;;;;;;;;5052445;28;20597;-73
2023/10/31 13:37:08;;;;;;;55.57;2.10;;;;;;;;;;5052590;28;20454;-72
2023/10/31 13:39:35;;;;;;;55.70;1.87;;;;;;;;;;5052637;28;20807;-72
2023/10/31 13:42:02;;;;;;;55.83;1.90;;;;;;;;;;5052509;28;20452;-73
2023/10/31 13:44:30;;;;;;;55.77;1.97;;;;;;;;;;5052349;28;20961;-73
2023/10/31 13:46:58;;;;;;;55.60;2.00;;;;;;;;;;5052918;28;20484;-71
2023/10/31 13:49:25;;;;;;;55.27;1.70;;;;;;;;;;5052281;28;20922;-72
2023/10/31 13:51:52;;;;;;;55.67;1.90;;;;;;;;;;5052543;28;20504;-73
2023/10/31 13:54:19;;;;;;;55.40;1.70;;;;;;;;;;5052479;28;20441;-72
2023/10/31 13:56:46;;;;;;;55.93;1.93;;;;;;;;;;5051900;28;20447;-73
2023/10/31 13:59:14;;;;;;;55.80;2.00;;;;;;;;;;5052126;28;20504;-72
2023/10/31 14:01:42;;;;;;;56.30;2.80;;;;;;;;;;5052074;28;20519;-72
2023/10/31 14:04:09;;;;;;;56.00;1.90;;;;;;;;;;5052397;28;20444;-72
2023/10/31 14:06:37;;;;;;;56.20;2.30;;;;;;;;;;5051906;28;20497;-73
2023/10/31 14:09:04;;;;;;;56.40;2.67;;;;;;;;;;5052215;28;20822;-72
2023/10/31 14:11:31;;;;;;;55.70;2.00;;;;;;;;;;5051746;28;20476;-72
2023/10/31 14:14:02;;;;;;;58.00;2.90;;;;;;;;;;5052018;28;20446;-73
2023/10/31 14:16:30;;;;;;;55.87;2.13;;;;;;;;;;5051614;28;20935;-72
2023/10/31 14:18:58;;;;;;;56.10;2.20;;;;;;;;;;5052002;28;20452;-72
2023/10/31 14:21:26;;;;;;;55.67;2.10;;;;;;;;;;5051756;28;20477;-72
2023/10/31 14:23:53;;;;;;;56.73;2.27;;;;;;;;;;5051960;28;20831;-72
2023/10/31 14:26:21;;;;;;;56.10;2.07;;;;;;;;;;5051705;28;20887;-73
2023/10/31 14:28:48;;;;;;;56.00;2.27;;;;;;;;;;5051466;28;20451;-72
2023/10/31 14:31:15;;;;;;;55.80;2.10;;;;;;;;;;5051717;28;20477;-72
2023/10/31 14:33:43;;;;;;;55.63;2.10;;;;;;;;;;5051827;28;20452;-71
2023/10/31 14:36:13;;;;;;;56.60;2.63;;;;;;;;;;5051392;28;20443;-71